createdAt,value
2019-06-10T00:00:13.572Z,99.90
2019-06-10T00:02:38.129Z,99.90
2019-06-10T00:05:08.166Z,99.90
2019-06-10T00:07:38.040Z,99.90
2019-06-10T00:10:10.797Z,99.90
2019-06-10T00:12:41.953Z,99.90
2019-06-10T00:15:12.236Z,99.90
2019-06-10T00:17:53.140Z,99.90
2019-06-10T00:20:15.051Z,99.90
2019-06-10T00:22:44.796Z,99.90
2019-06-10T00:25:14.513Z,99.90
2019-06-10T00:27:44.292Z,99.90
2019-06-10T00:30:14.094Z,99.90
2019-06-10T00:32:43.835Z,99.90
2019-06-10T00:35:13.574Z,99.90
2019-06-10T00:37:43.283Z,99.90
2019-06-10T00:40:14.427Z,99.90
2019-06-10T00:42:44.266Z,99.90
2019-06-10T00:45:17.976Z,99.90
2019-06-10T00:47:45.434Z,99.90
2019-06-10T00:50:15.220Z,99.90
2019-06-10T00:52:45.512Z,99.90
2019-06-10T00:55:15.465Z,99.90
2019-06-10T00:57:45.151Z,99.90
2019-06-10T01:00:25.129Z,99.90
2019-06-10T01:02:46.548Z,99.90
2019-06-10T01:05:16.253Z,99.90
2019-06-10T01:07:46.052Z,99.90
2019-06-10T01:10:16.391Z,99.90
2019-06-10T01:12:46.152Z,99.90
2019-06-10T01:15:16.733Z,99.90
2019-06-10T01:17:46.532Z,99.90
2019-06-10T01:20:16.267Z,99.90
2019-06-10T01:22:46.839Z,99.90
2019-06-10T01:25:17.781Z,99.90
2019-06-10T01:27:47.567Z,99.90
2019-06-10T01:30:22.591Z,99.90
2019-06-10T01:32:50.643Z,99.90
2019-06-10T01:35:21.045Z,99.90
2019-06-10T01:37:51.998Z,99.90
2019-06-10T01:40:21.896Z,99.90
2019-06-10T01:42:51.685Z,99.90
2019-06-10T01:45:21.451Z,99.90
2019-06-10T01:47:51.221Z,99.90
2019-06-10T01:50:21.785Z,99.90
2019-06-10T01:52:51.836Z,99.90
2019-06-10T01:55:21.998Z,99.90
2019-06-10T01:57:51.979Z,99.90
2019-06-10T02:00:26.211Z,99.90
2019-06-10T02:02:56.000Z,99.90
2019-06-10T02:05:25.744Z,99.90
2019-06-10T02:07:55.433Z,99.90
2019-06-10T02:10:25.212Z,99.90
2019-06-10T02:12:54.927Z,99.90
2019-06-10T02:15:24.652Z,99.90
2019-06-10T02:17:54.363Z,99.90
2019-06-10T02:20:24.168Z,99.90
2019-06-10T02:22:53.898Z,99.90
2019-06-10T02:25:23.588Z,99.90
2019-06-10T02:27:53.344Z,99.90
2019-06-10T02:30:39.414Z,99.90
2019-06-10T02:32:54.469Z,99.90
2019-06-10T02:35:37.619Z,99.90
2019-06-10T02:37:55.680Z,99.90
2019-06-10T02:40:31.794Z,99.90
2019-06-10T02:42:58.968Z,99.90
2019-06-10T02:45:33.793Z,99.90
2019-06-10T02:48:00.109Z,99.90
2019-06-10T02:51:15.125Z,99.90
2019-06-10T02:53:44.142Z,99.90
2019-06-10T02:56:14.886Z,99.90
2019-06-10T02:58:45.283Z,99.90
2019-06-10T03:01:17.042Z,99.90
2019-06-10T03:03:49.562Z,99.90
2019-06-10T03:06:20.109Z,99.90
2019-06-10T03:08:49.213Z,99.90
2019-06-10T03:11:20.756Z,99.90
2019-06-10T03:13:50.263Z,99.90
2019-06-10T03:16:38.892Z,99.90
2019-06-10T03:19:08.643Z,99.90
2019-06-10T03:21:38.406Z,99.90
2019-06-10T03:24:08.228Z,99.90
2019-06-10T03:26:37.943Z,99.90
2019-06-10T03:29:07.811Z,99.90
2019-06-10T03:31:43.137Z,99.90
2019-06-10T03:34:08.905Z,99.90
2019-06-10T03:36:38.708Z,99.90
2019-06-10T03:39:09.254Z,99.90
2019-06-10T03:41:39.060Z,99.90
2019-06-10T03:44:08.838Z,99.90
2019-06-10T03:46:38.592Z,99.90
2019-06-10T03:49:08.385Z,99.90
2019-06-10T03:51:38.133Z,99.90
2019-06-10T03:54:07.924Z,99.90
2019-06-10T03:56:37.650Z,99.90
2019-06-10T03:59:07.502Z,99.90
2019-06-10T04:01:37.258Z,99.90
2019-06-10T04:04:06.969Z,99.90
2019-06-10T04:06:36.755Z,99.90
2019-06-10T04:09:07.358Z,99.90
2019-06-10T04:11:37.117Z,99.90
2019-06-10T04:14:06.837Z,99.90
2019-06-10T04:16:36.529Z,99.90
2019-06-10T04:19:06.313Z,99.90
2019-06-10T04:21:36.019Z,99.90
2019-06-10T04:24:05.714Z,99.90
2019-06-10T04:26:35.444Z,98.90
2019-06-10T04:29:05.221Z,93.80
2019-06-10T04:31:34.885Z,90.50
2019-06-10T04:34:04.636Z,87.50
2019-06-10T04:36:34.441Z,84.70
2019-06-10T04:39:05.791Z,80.60
2019-06-10T04:41:35.539Z,75.10
2019-06-10T04:44:05.314Z,73.10
2019-06-10T04:46:35.053Z,69.70
2019-06-10T04:49:04.745Z,70.10
2019-06-10T04:51:34.498Z,70.70
2019-06-10T04:54:04.348Z,73.40
2019-06-10T04:56:34.056Z,76.40
2019-06-10T04:59:03.923Z,78.80
2019-06-10T05:01:33.755Z,81.20
2019-06-10T05:04:03.484Z,82.40
2019-06-10T05:06:33.236Z,83.20
2019-06-10T05:09:04.224Z,83.30
2019-06-10T05:11:34.163Z,83.30
2019-06-10T05:14:03.849Z,83.90
2019-06-10T05:16:35.936Z,83.40
2019-06-10T05:19:04.959Z,83.90
2019-06-10T05:21:34.674Z,85.10
2019-06-10T05:24:04.576Z,85.60
2019-06-10T05:26:34.283Z,86.40
2019-06-10T05:29:05.015Z,86.00
2019-06-10T05:31:35.350Z,85.60
2019-06-10T05:34:09.830Z,86.70
2019-06-10T05:36:39.588Z,87.20
2019-06-10T05:39:09.396Z,88.00
2019-06-10T05:41:39.118Z,88.60
2019-06-10T05:44:09.331Z,89.00
2019-06-10T05:46:39.011Z,89.70
2019-06-10T05:49:08.722Z,89.80
2019-06-10T05:51:38.460Z,89.60
2019-06-10T05:54:08.245Z,87.90
2019-06-10T05:56:37.886Z,87.50
2019-06-10T05:59:07.587Z,85.20
2019-06-10T06:01:38.614Z,85.50
2019-06-10T06:04:08.594Z,85.40
2019-06-10T06:06:41.505Z,83.60
2019-06-10T06:09:09.809Z,83.30
2019-06-10T06:11:39.621Z,81.10
2019-06-10T06:14:09.381Z,81.50
2019-06-10T06:16:39.268Z,80.20
2019-06-10T06:19:09.124Z,81.80
2019-06-10T06:21:42.786Z,80.60
2019-06-10T06:24:12.634Z,79.90
2019-06-10T06:26:43.302Z,79.40
2019-06-10T06:29:13.178Z,79.10
2019-06-10T06:31:43.424Z,79.90
2019-06-10T06:34:14.097Z,79.20
2019-06-10T06:36:43.913Z,80.20
2019-06-10T06:39:13.681Z,80.50
2019-06-10T06:41:43.380Z,80.00
2019-06-10T06:44:13.267Z,79.20
2019-06-10T06:46:43.220Z,79.10
2019-06-10T06:49:14.862Z,77.50
2019-06-10T06:51:54.725Z,76.70
2019-06-10T06:54:16.003Z,78.30
2019-06-10T06:56:45.753Z,77.80
2019-06-10T06:59:15.484Z,76.40
2019-06-10T07:01:45.284Z,76.40
2019-06-10T07:04:15.031Z,75.70
2019-06-10T07:06:44.854Z,74.50
2019-06-10T07:09:15.315Z,75.00
2019-06-10T07:11:46.853Z,73.40
2019-06-10T07:14:18.586Z,74.10
2019-06-10T07:16:48.263Z,73.20
2019-06-10T07:19:18.161Z,75.50
2019-06-10T07:22:07.588Z,74.60
2019-06-10T07:24:23.018Z,74.80
2019-06-10T07:26:54.934Z,73.60
2019-06-10T07:29:23.588Z,74.30
2019-06-10T07:31:53.843Z,74.80
2019-06-10T07:34:23.983Z,72.60
2019-06-10T07:36:53.812Z,72.40
2019-06-10T07:39:23.571Z,72.70
2019-06-10T07:41:53.329Z,72.40
2019-06-10T07:44:23.044Z,70.90
2019-06-10T07:46:53.147Z,70.50
2019-06-10T07:49:23.781Z,72.60
2019-06-10T07:51:54.021Z,73.30
2019-06-10T07:54:23.747Z,73.20
2019-06-10T07:56:53.931Z,72.00
2019-06-10T07:59:23.923Z,71.60
2019-06-10T08:01:55.433Z,72.20
2019-06-10T08:04:25.320Z,72.40
2019-06-10T08:06:55.139Z,71.60
2019-06-10T08:09:24.829Z,70.70
2019-06-10T08:11:54.568Z,70.30
2019-06-10T08:14:24.242Z,70.30
2019-06-10T08:16:55.936Z,69.10
2019-06-10T08:19:34.439Z,68.00
2019-06-10T08:21:57.004Z,68.60
2019-06-10T08:24:26.836Z,67.90
2019-06-10T08:26:56.628Z,68.10
2019-06-10T08:29:26.337Z,67.80
2019-06-10T08:31:56.230Z,67.40
2019-06-10T08:34:25.973Z,67.90
2019-06-10T08:36:55.739Z,69.70
2019-06-10T08:39:25.467Z,70.30
2019-06-10T08:41:55.220Z,71.00
2019-06-10T08:44:24.959Z,69.80
2019-06-10T08:46:54.715Z,69.20
2019-06-10T08:49:24.461Z,68.60
2019-06-10T08:51:54.234Z,69.40
2019-06-10T08:54:24.043Z,70.40
2019-06-10T08:56:54.287Z,70.60
2019-06-10T08:59:24.436Z,70.40
2019-06-10T09:01:56.681Z,72.40
2019-06-10T09:04:25.547Z,71.40
2019-06-10T09:06:55.373Z,71.30
2019-06-10T09:09:25.232Z,71.40
2019-06-10T09:11:55.007Z,70.00
2019-06-10T09:14:24.839Z,71.50
2019-06-10T09:16:54.623Z,72.40
2019-06-10T09:19:24.395Z,71.60
2019-06-10T09:21:56.356Z,71.70
2019-06-10T09:24:25.538Z,73.20
2019-06-10T09:26:55.285Z,73.60
2019-06-10T09:29:25.005Z,74.40
2019-06-10T09:31:55.839Z,74.80
2019-06-10T09:34:26.205Z,76.80
2019-06-10T09:36:57.086Z,77.30
2019-06-10T09:39:26.886Z,76.20
2019-06-10T09:42:02.272Z,76.70
2019-06-10T09:44:28.020Z,76.50
2019-06-10T09:47:03.161Z,76.40
2019-06-10T09:49:33.482Z,75.70
2019-06-10T09:52:03.305Z,76.70
2019-06-10T09:54:33.723Z,77.80
2019-06-10T09:57:03.667Z,76.50
2019-06-10T09:59:33.377Z,75.50
2019-06-10T10:02:06.403Z,75.90
2019-06-10T10:04:37.348Z,76.90
2019-06-10T10:07:05.980Z,75.10
2019-06-10T10:09:37.047Z,77.70
2019-06-10T10:12:07.006Z,77.00
2019-06-10T10:14:36.781Z,77.90
2019-06-10T10:17:06.521Z,76.70
2019-06-10T10:19:36.217Z,76.00
2019-06-10T10:22:05.935Z,77.20
2019-06-10T10:24:35.680Z,76.40
2019-06-10T10:27:09.502Z,76.20
2019-06-10T10:29:39.207Z,76.90
2019-06-10T10:32:08.979Z,77.20
2019-06-10T10:34:38.719Z,77.80
2019-06-10T10:37:12.382Z,78.70
2019-06-10T10:39:42.557Z,79.20
2019-06-10T10:42:12.704Z,79.40
2019-06-10T10:44:46.256Z,79.80
2019-06-10T10:47:13.716Z,78.20
2019-06-10T10:49:44.896Z,79.10
2019-06-10T10:52:14.789Z,79.90
2019-06-10T10:54:45.071Z,79.30
2019-06-10T10:57:15.906Z,79.30
2019-06-10T10:59:46.569Z,80.80
2019-06-10T11:02:17.083Z,80.70
2019-06-10T11:04:49.623Z,80.50
2019-06-10T11:07:21.776Z,81.30
2019-06-10T11:09:55.119Z,79.80
2019-06-10T11:12:24.440Z,78.00
2019-06-10T11:15:00.427Z,78.30
2019-06-10T11:17:26.880Z,79.20
2019-06-10T11:19:57.786Z,78.50
2019-06-10T11:22:27.792Z,79.30
2019-06-10T11:24:57.829Z,81.30
2019-06-10T11:27:27.543Z,81.00
2019-06-10T11:29:59.022Z,80.20
2019-06-10T11:32:28.635Z,79.50
2019-06-10T11:34:58.678Z,78.10
2019-06-10T11:37:28.631Z,77.60
2019-06-10T11:39:59.015Z,78.00
2019-06-10T11:42:28.726Z,79.50
2019-06-10T11:44:59.969Z,76.80
2019-06-10T11:47:30.307Z,78.50
2019-06-10T11:50:03.283Z,76.90
2019-06-10T11:52:33.471Z,76.70
2019-06-10T11:55:11.649Z,77.50
2019-06-10T11:57:34.683Z,77.10
2019-06-10T12:00:13.617Z,77.60
2019-06-10T12:02:36.721Z,78.20
2019-06-10T12:05:06.993Z,78.70
2019-06-10T12:07:36.785Z,78.50
2019-06-10T12:10:07.983Z,80.30
2019-06-10T12:12:37.731Z,78.00
2019-06-10T12:15:08.151Z,76.30
2019-06-10T12:17:49.877Z,76.70
2019-06-10T12:20:13.079Z,76.50
2019-06-10T12:22:42.377Z,76.80
2019-06-10T12:25:31.556Z,77.30
2019-06-10T12:27:45.649Z,77.10
2019-06-10T12:30:22.230Z,76.00
2019-06-10T12:32:55.595Z,76.90
2019-06-10T12:35:23.218Z,77.50
2019-06-10T12:37:58.064Z,76.50
2019-06-10T12:40:26.439Z,75.20
2019-06-10T12:42:57.788Z,77.00
2019-06-10T12:45:28.078Z,75.80
2019-06-10T12:47:58.773Z,74.80
2019-06-10T12:50:29.211Z,75.00
2019-06-10T12:53:00.195Z,76.60
2019-06-10T12:55:39.298Z,76.60
2019-06-10T12:58:04.040Z,76.30
2019-06-10T13:00:43.553Z,76.20
2019-06-10T13:03:13.557Z,76.60
2019-06-10T13:05:45.120Z,76.40
2019-06-10T13:08:16.029Z,75.00
2019-06-10T13:10:46.739Z,74.90
2019-06-10T13:13:16.495Z,73.40
2019-06-10T13:15:46.275Z,72.40
2019-06-10T13:18:19.488Z,71.80
2019-06-10T13:20:47.416Z,72.70
2019-06-10T13:23:25.331Z,72.40
2019-06-10T13:25:55.376Z,73.70
2019-06-10T13:28:22.099Z,73.70
2019-06-10T13:30:54.586Z,73.90
2019-06-10T13:33:23.098Z,72.50
2019-06-10T13:35:54.048Z,73.00
2019-06-10T13:38:25.861Z,73.30
2019-06-10T13:40:55.134Z,72.80
2019-06-10T13:43:24.945Z,73.20
2019-06-10T13:45:54.660Z,74.40
2019-06-10T13:48:26.057Z,74.10
2019-06-10T13:50:56.033Z,72.80
2019-06-10T13:53:25.931Z,73.30
2019-06-10T13:56:17.217Z,72.00
2019-06-10T13:58:28.007Z,73.00
2019-06-10T14:00:57.776Z,72.70
2019-06-10T14:03:27.602Z,72.20
2019-06-10T14:06:01.304Z,74.50
2019-06-10T14:08:28.697Z,72.60
2019-06-10T14:10:58.421Z,73.20
2019-06-10T14:13:28.148Z,71.30
2019-06-10T14:16:01.293Z,71.90
2019-06-10T14:18:32.792Z,71.30
2019-06-10T14:21:07.248Z,72.40
2019-06-10T14:23:34.331Z,71.60
2019-06-10T14:26:06.124Z,72.10
2019-06-10T14:28:40.453Z,70.00
2019-06-10T14:31:30.268Z,69.90
2019-06-10T14:33:38.612Z,72.20
2019-06-10T14:36:10.046Z,70.60
2019-06-10T14:38:41.964Z,71.10
2019-06-10T14:41:12.343Z,71.00
2019-06-10T14:43:42.493Z,69.00
2019-06-10T14:46:15.601Z,68.00
2019-06-10T14:48:43.655Z,67.80
2019-06-10T14:51:16.895Z,68.90
2019-06-10T14:53:46.104Z,69.60
2019-06-10T14:56:19.049Z,68.10
2019-06-10T14:58:47.281Z,67.70
2019-06-10T15:01:24.411Z,67.20
2019-06-10T15:03:48.318Z,67.30
2019-06-10T15:06:18.043Z,66.20
2019-06-10T15:08:47.832Z,66.00
2019-06-10T15:11:17.540Z,65.00
2019-06-10T15:13:47.286Z,64.80
2019-06-10T15:16:17.078Z,65.00
2019-06-10T15:18:46.840Z,65.20
2019-06-10T15:21:17.340Z,65.20
2019-06-10T15:23:47.560Z,65.10
2019-06-10T15:26:17.771Z,64.90
2019-06-10T15:28:47.573Z,64.20
2019-06-10T15:31:18.296Z,63.60
2019-06-10T15:33:56.283Z,63.30
2019-06-10T15:36:26.031Z,62.50
2019-06-10T15:38:55.741Z,62.70
2019-06-10T15:41:25.553Z,62.70
2019-06-10T15:43:55.729Z,62.30
2019-06-10T15:46:25.460Z,62.20
2019-06-10T15:48:55.216Z,61.50
2019-06-10T15:51:26.109Z,60.90
2019-06-10T15:53:59.363Z,61.70
2019-06-10T15:56:44.693Z,61.60
2019-06-10T15:59:02.770Z,62.60
2019-06-10T16:01:32.644Z,63.50
2019-06-10T16:04:02.590Z,63.50
2019-06-10T16:06:33.012Z,64.40
2019-06-10T16:09:03.082Z,65.00
2019-06-10T16:11:33.155Z,65.10
2019-06-10T16:14:03.058Z,65.90
2019-06-10T16:16:32.780Z,67.00
2019-06-10T16:19:02.585Z,66.90
2019-06-10T16:21:32.354Z,68.30
2019-06-10T16:24:02.727Z,68.50
2019-06-10T16:26:35.412Z,68.50
2019-06-10T16:29:04.099Z,68.70
2019-06-10T16:31:34.410Z,69.40
2019-06-10T16:34:04.437Z,69.60
2019-06-10T16:36:34.507Z,70.80
2019-06-10T16:39:05.954Z,70.40
2019-06-10T16:41:35.659Z,70.70
2019-06-10T16:44:05.359Z,71.10
2019-06-10T16:46:35.142Z,70.60
2019-06-10T16:49:04.965Z,71.40
2019-06-10T16:51:34.700Z,71.80
2019-06-10T16:54:04.466Z,72.80
2019-06-10T16:56:34.244Z,72.90
2019-06-10T16:59:03.991Z,72.90
2019-06-10T17:01:33.753Z,72.30
2019-06-10T17:04:03.539Z,72.50
2019-06-10T17:06:33.701Z,73.40
2019-06-10T17:09:04.666Z,74.00
2019-06-10T17:11:34.351Z,74.10
2019-06-10T17:14:12.597Z,74.90
2019-06-10T17:16:48.939Z,75.20
2019-06-10T17:19:28.567Z,75.80
2019-06-10T17:22:06.042Z,76.00
2019-06-10T17:24:42.636Z,77.00
2019-06-10T17:27:22.284Z,76.70
2019-06-10T17:29:58.263Z,77.70
2019-06-10T17:32:36.496Z,77.90
2019-06-10T17:35:14.122Z,78.80
2019-06-10T17:37:52.199Z,79.20
2019-06-10T17:40:28.065Z,80.40
2019-06-10T17:43:04.109Z,80.90
2019-06-10T17:45:42.228Z,81.30
2019-06-10T17:48:18.667Z,81.60
2019-06-10T17:50:53.940Z,82.30
2019-06-10T17:53:34.639Z,82.90
2019-06-10T17:56:09.140Z,82.60
2019-06-10T17:58:54.344Z,83.30
2019-06-10T18:01:16.004Z,83.30
2019-06-10T18:03:45.741Z,84.40
2019-06-10T18:06:22.879Z,85.60
2019-06-10T18:09:00.609Z,85.10
2019-06-10T18:11:37.029Z,85.20
2019-06-10T18:14:13.685Z,85.50
2019-06-10T18:16:52.325Z,86.10
2019-06-10T18:19:28.411Z,86.60
2019-06-10T18:22:09.063Z,86.90
2019-06-10T18:24:44.731Z,87.90
2019-06-10T18:27:22.034Z,88.00
2019-06-10T18:30:10.469Z,88.50
2019-06-10T18:32:36.106Z,88.60
2019-06-10T18:35:05.467Z,89.40
2019-06-10T18:37:36.388Z,89.90
2019-06-10T18:40:17.389Z,90.20
2019-06-10T18:42:54.711Z,90.40
2019-06-10T18:45:29.914Z,90.90
2019-06-10T18:48:06.575Z,91.10
2019-06-10T18:50:43.243Z,91.90
2019-06-10T18:53:18.934Z,92.30
2019-06-10T18:55:55.268Z,92.60
2019-06-10T18:58:29.999Z,93.00
2019-06-10T19:01:07.901Z,93.70
2019-06-10T19:03:43.323Z,94.10
2019-06-10T19:06:22.911Z,94.70
2019-06-10T19:09:00.106Z,95.00
2019-06-10T19:11:31.021Z,95.40
2019-06-10T19:14:03.353Z,95.80
2019-06-10T19:16:35.427Z,96.60
2019-06-10T19:19:04.630Z,96.60
2019-06-10T19:21:34.352Z,97.50
2019-06-10T19:24:04.057Z,97.90
2019-06-10T19:26:36.780Z,98.30
2019-06-10T19:29:05.492Z,98.10
2019-06-10T19:31:38.942Z,98.70
2019-06-10T19:34:06.580Z,99.20
2019-06-10T19:36:37.710Z,99.40
2019-06-10T19:39:08.177Z,99.90
2019-06-10T19:41:39.729Z,99.90
2019-06-10T19:44:09.264Z,99.90
2019-06-10T19:46:39.715Z,99.90
2019-06-10T19:49:09.660Z,99.90
2019-06-10T19:51:39.376Z,99.90
2019-06-10T19:54:09.155Z,99.90
2019-06-10T19:56:39.672Z,99.90
2019-06-10T19:59:09.662Z,99.90
2019-06-10T20:01:40.753Z,99.90
2019-06-10T20:04:10.728Z,99.90
2019-06-10T20:06:45.210Z,99.90
2019-06-10T20:09:13.167Z,99.90
2019-06-10T20:11:46.974Z,99.90
2019-06-10T20:14:14.686Z,99.90
2019-06-10T20:16:45.971Z,99.90
2019-06-10T20:19:15.741Z,99.90
2019-06-10T20:21:47.046Z,99.90
2019-06-10T20:24:16.862Z,99.90
2019-06-10T20:26:48.101Z,99.90
2019-06-10T20:29:17.936Z,99.90
2019-06-10T20:31:48.841Z,99.90
2019-06-10T20:34:19.593Z,99.90
2019-06-10T20:36:50.221Z,99.90
2019-06-10T20:39:24.422Z,99.90
2019-06-10T20:41:55.319Z,99.90
2019-06-10T20:44:22.647Z,99.90
2019-06-10T20:46:53.023Z,99.90
2019-06-10T20:49:25.193Z,99.90
2019-06-10T20:52:08.002Z,99.90
2019-06-10T20:54:26.414Z,99.90
2019-06-10T20:56:56.077Z,99.90
2019-06-10T20:59:26.239Z,99.90
2019-06-10T21:01:56.463Z,99.90
2019-06-10T21:04:26.241Z,99.90
2019-06-10T21:06:57.434Z,99.90
2019-06-10T21:09:28.319Z,99.90
2019-06-10T21:11:58.065Z,99.90
2019-06-10T21:14:27.738Z,99.90
2019-06-10T21:16:57.400Z,99.90
2019-06-10T21:19:27.127Z,99.90
2019-06-10T21:21:56.829Z,99.90
2019-06-10T21:24:26.547Z,99.90
2019-06-10T21:26:56.344Z,99.90
2019-06-10T21:29:26.074Z,99.90
2019-06-10T21:31:55.797Z,99.90
2019-06-10T21:34:25.500Z,99.90
2019-06-10T21:36:55.287Z,99.90
2019-06-10T21:39:25.388Z,99.90
2019-06-10T21:41:55.763Z,99.90
2019-06-10T21:44:25.460Z,99.90
2019-06-10T21:46:55.205Z,99.90
2019-06-10T21:49:24.872Z,99.90
2019-06-10T21:51:57.025Z,99.90
2019-06-10T21:54:25.996Z,99.90
2019-06-10T21:56:55.918Z,99.90
2019-06-10T21:59:25.899Z,99.90
2019-06-10T22:01:55.695Z,99.90
2019-06-10T22:04:25.386Z,99.90
2019-06-10T22:06:56.111Z,99.90
2019-06-10T22:09:26.056Z,99.90
2019-06-10T22:11:55.969Z,99.90
2019-06-10T22:14:26.079Z,99.90
2019-06-10T22:16:56.530Z,99.90
2019-06-10T22:19:26.477Z,99.90
2019-06-10T22:21:58.199Z,99.90
2019-06-10T22:24:28.288Z,99.90
2019-06-10T22:26:57.947Z,99.90
2019-06-10T22:29:27.633Z,99.90
2019-06-10T22:31:57.385Z,99.90
2019-06-10T22:34:27.128Z,99.90
2019-06-10T22:36:57.672Z,99.90
2019-06-10T22:39:27.530Z,99.90
2019-06-10T22:41:57.310Z,99.90
2019-06-10T22:44:26.994Z,99.90
2019-06-10T22:46:57.261Z,99.90
2019-06-10T22:49:28.156Z,99.90
2019-06-10T22:52:00.020Z,99.90
2019-06-10T22:54:29.179Z,99.90
2019-06-10T22:57:00.026Z,99.90
2019-06-10T22:59:30.288Z,99.90
2019-06-10T23:02:00.788Z,99.90
2019-06-10T23:04:33.139Z,99.90
2019-06-10T23:07:03.188Z,99.90
2019-06-10T23:09:32.994Z,99.90
2019-06-10T23:12:02.968Z,99.90
2019-06-10T23:14:33.316Z,99.90
2019-06-10T23:17:03.394Z,99.90
2019-06-10T23:19:33.387Z,99.90
2019-06-10T23:22:03.412Z,99.90
2019-06-10T23:24:33.111Z,99.90
2019-06-10T23:27:03.462Z,99.90
2019-06-10T23:29:33.634Z,99.90
2019-06-10T23:32:06.689Z,99.90
2019-06-10T23:34:34.673Z,99.90
2019-06-10T23:37:04.654Z,99.90
2019-06-10T23:39:34.368Z,99.90
2019-06-10T23:42:04.467Z,99.90
2019-06-10T23:44:34.811Z,99.90
2019-06-10T23:47:04.499Z,99.90
2019-06-10T23:49:34.269Z,99.90
2019-06-10T23:52:05.481Z,99.90
2019-06-10T23:54:35.522Z,99.90
2019-06-10T23:57:06.119Z,99.90
2019-06-10T23:59:36.347Z,99.90
